首页
METAR-TAF:

METAR-TAF

机场 :

Hutchinson County Airport

Borger, 得克萨斯州, 美国

纬度: 35-41-42N, 经度: 101-23-42W, 海拔: 931米

当前天气观测

该预报发布于44分钟前的17:51 UTC
风速9节,风向南转南东,在东转东南之间变化
温度 28°C
湿度 48%
气压 1026 hPa
能見度: 16.1公里
多云层高于4700英尺
阴天层高于9000英尺

METAR: KBGD 201751Z AUTO 15009KT 110V180 10SM BKN047 OVC090 28/16 A3030 RMK AO2 SLP220 T02780161 10283 20217 58003

时间: 13:35 (18:35 UTC)


TAF: 丢失

超过4000个机场的气象观测和天气预报(METAR&TAF报告)。

可查询的气象台以黄色和红色小点在地图上表示。

将鼠标移到小点上方,可查看气象台名称。

然后点击查看天气观测和预报。

如需切换地图:点击带黑十字的绿色按钮放大地图;点击带横线的绿色按钮缩小地图;或者点击绿色箭头查看邻近地区的地图。


METAR-TAF: